createdAt,value
2022-08-25T00:02:56.874Z,18.93
2022-08-25T00:06:00.756Z,18.93
2022-08-25T00:09:05.726Z,18.92
2022-08-25T00:12:08.168Z,18.93
2022-08-25T00:15:11.312Z,18.93
2022-08-25T00:18:19.812Z,18.94
2022-08-25T00:21:23.053Z,18.96
2022-08-25T00:24:25.984Z,18.99
2022-08-25T00:27:28.298Z,18.99
2022-08-25T00:30:30.529Z,19.03
2022-08-25T00:33:32.969Z,19.07
2022-08-25T00:36:35.819Z,19.05
2022-08-25T00:39:39.419Z,19.03
2022-08-25T00:42:42.174Z,19.05
2022-08-25T00:45:44.321Z,19.04
2022-08-25T00:48:51.180Z,19.06
2022-08-25T00:52:07.891Z,19.06
2022-08-25T00:55:21.997Z,19.04
2022-08-25T00:58:27.273Z,19.02
2022-08-25T01:02:08.261Z,19.01
2022-08-25T01:05:12.921Z,19.01
2022-08-25T01:08:16.995Z,19.01
2022-08-25T01:11:19.053Z,19.03
2022-08-25T01:14:25.714Z,19.04
2022-08-25T01:17:45.152Z,19.03
2022-08-25T01:20:53.514Z,19.03
2022-08-25T01:23:58.488Z,19.05
2022-08-25T01:27:01.573Z,19.08
2022-08-25T01:30:05.557Z,19.06
2022-08-25T01:33:09.930Z,19.03
2022-08-25T01:36:12.108Z,19.00
2022-08-25T01:39:15.617Z,18.98
2022-08-25T01:42:34.568Z,18.98
2022-08-25T01:45:38.542Z,18.96
2022-08-25T01:48:40.860Z,18.94
2022-08-25T01:51:48.303Z,18.94
2022-08-25T01:54:50.577Z,18.96
2022-08-25T01:57:53.372Z,18.99
2022-08-25T02:00:58.642Z,19.01
2022-08-25T02:04:01.124Z,19.00
2022-08-25T02:07:08.125Z,19.01
2022-08-25T02:10:14.028Z,19.00
2022-08-25T02:13:16.350Z,18.99
2022-08-25T02:16:25.009Z,18.96
2022-08-25T02:19:27.307Z,18.92
2022-08-25T02:22:29.538Z,18.90
2022-08-25T02:25:33.021Z,18.92
2022-08-25T02:28:35.238Z,18.92
2022-08-25T02:31:37.788Z,18.94
2022-08-25T02:34:41.769Z,18.93
2022-08-25T02:37:44.104Z,18.94
2022-08-25T02:40:46.100Z,18.90
2022-08-25T02:43:49.139Z,18.89
2022-08-25T02:46:51.181Z,18.90
2022-08-25T02:49:53.284Z,18.90
2022-08-25T02:52:55.593Z,18.91
2022-08-25T02:55:57.788Z,18.95
2022-08-25T02:59:00.679Z,18.98
2022-08-25T03:02:03.719Z,19.00
2022-08-25T03:05:07.559Z,19.01
2022-08-25T03:08:09.778Z,19.02
2022-08-25T03:11:12.515Z,19.03
2022-08-25T03:14:14.903Z,19.04
2022-08-25T03:17:16.976Z,19.05
2022-08-25T03:20:19.733Z,19.06
2022-08-25T03:23:21.775Z,19.05
2022-08-25T03:26:43.001Z,19.03
2022-08-25T03:29:45.752Z,18.96
2022-08-25T03:32:48.214Z,18.91
2022-08-25T03:35:50.302Z,18.86
2022-08-25T03:38:53.163Z,18.83
2022-08-25T03:41:55.462Z,18.77
2022-08-25T03:44:57.567Z,18.75
2022-08-25T03:47:59.755Z,18.71
2022-08-25T03:51:01.946Z,18.70
2022-08-25T03:54:05.081Z,18.70
2022-08-25T03:57:07.155Z,18.72
2022-08-25T04:00:12.122Z,18.76
2022-08-25T04:03:14.253Z,18.77
2022-08-25T04:06:17.916Z,18.76
2022-08-25T04:09:20.073Z,18.76
2022-08-25T04:12:22.489Z,18.78
2022-08-25T04:15:28.498Z,18.83
2022-08-25T04:18:32.327Z,18.88
2022-08-25T04:21:35.284Z,18.92
2022-08-25T04:24:37.292Z,18.98
2022-08-25T04:27:39.424Z,19.04
2022-08-25T04:30:43.843Z,19.09
2022-08-25T04:33:48.274Z,19.15
2022-08-25T04:36:52.654Z,19.20
2022-08-25T04:39:54.910Z,19.25
2022-08-25T04:42:56.985Z,19.25
2022-08-25T04:46:00.224Z,19.29
2022-08-25T04:49:03.663Z,19.29
2022-08-25T04:52:05.808Z,19.26
2022-08-25T04:55:15.188Z,19.22
2022-08-25T04:58:17.521Z,19.21
2022-08-25T05:01:23.611Z,19.18
2022-08-25T05:04:25.719Z,19.13
2022-08-25T05:07:30.812Z,19.11
2022-08-25T05:10:34.008Z,19.18
2022-08-25T05:13:36.816Z,19.17
2022-08-25T05:16:40.262Z,19.17
2022-08-25T05:19:43.006Z,19.23
2022-08-25T05:22:46.834Z,19.28
2022-08-25T05:25:49.300Z,19.36
2022-08-25T05:28:52.921Z,19.44
2022-08-25T05:31:54.946Z,19.52
2022-08-25T05:34:56.987Z,19.64
2022-08-25T05:37:59.489Z,19.77
2022-08-25T05:41:07.368Z,19.87
2022-08-25T05:44:09.924Z,19.98
2022-08-25T05:47:11.964Z,20.07
2022-08-25T05:50:13.969Z,20.15
2022-08-25T05:53:16.068Z,20.18
2022-08-25T05:56:18.807Z,20.22
2022-08-25T05:59:20.910Z,20.26
2022-08-25T06:02:41.564Z,20.28
2022-08-25T06:05:44.324Z,20.27
2022-08-25T06:08:46.416Z,20.26
2022-08-25T06:11:54.035Z,20.24
2022-08-25T06:14:57.105Z,20.21
2022-08-25T06:18:01.929Z,20.20
2022-08-25T06:21:14.339Z,20.16
2022-08-25T06:24:16.307Z,20.11
2022-08-25T06:27:18.949Z,20.13
2022-08-25T06:30:27.190Z,20.08
2022-08-25T06:33:31.034Z,20.10
2022-08-25T06:36:33.873Z,20.10
2022-08-25T06:39:36.114Z,20.11
2022-08-25T06:42:38.522Z,20.24
2022-08-25T06:45:44.249Z,20.38
2022-08-25T06:48:46.299Z,20.52
2022-08-25T06:51:48.464Z,20.58
2022-08-25T06:54:51.029Z,20.61
2022-08-25T06:58:03.832Z,20.62
2022-08-25T07:01:19.841Z,20.61
2022-08-25T07:04:22.556Z,20.61
2022-08-25T07:07:24.603Z,20.63
2022-08-25T07:10:26.718Z,20.68
2022-08-25T07:13:28.784Z,20.70
2022-08-25T07:16:32.961Z,20.73
2022-08-25T07:19:37.094Z,20.83
2022-08-25T07:22:40.449Z,20.96
2022-08-25T07:25:42.563Z,20.96
2022-08-25T07:28:47.437Z,20.99
2022-08-25T07:31:50.146Z,21.00
2022-08-25T07:35:11.389Z,21.08
2022-08-25T07:38:20.692Z,21.15
2022-08-25T07:41:23.123Z,21.14
2022-08-25T07:44:28.160Z,21.07
2022-08-25T07:47:30.247Z,20.93
2022-08-25T07:50:33.401Z,20.82
2022-08-25T07:53:35.474Z,20.78
2022-08-25T07:56:41.604Z,20.80
2022-08-25T07:59:44.212Z,20.81
2022-08-25T08:02:48.904Z,20.87
2022-08-25T08:05:52.173Z,20.97
2022-08-25T08:08:59.006Z,21.11
2022-08-25T08:12:01.210Z,21.34
2022-08-25T08:15:04.891Z,21.49
2022-08-25T08:18:12.889Z,21.57
2022-08-25T08:21:36.087Z,21.58
2022-08-25T08:24:44.793Z,21.55
2022-08-25T08:27:57.301Z,21.53
2022-08-25T08:30:59.840Z,21.61
2022-08-25T08:34:03.895Z,21.87
2022-08-25T08:37:05.949Z,21.97
2022-08-25T08:40:16.617Z,21.90
2022-08-25T08:43:20.315Z,22.04
2022-08-25T08:46:25.997Z,22.40
2022-08-25T08:49:41.073Z,22.88
2022-08-25T08:53:13.530Z,23.12
2022-08-25T08:56:23.102Z,23.05
2022-08-25T08:59:39.476Z,23.02
2022-08-25T09:02:52.934Z,22.73
2022-08-25T09:05:59.111Z,22.37
2022-08-25T09:09:06.801Z,22.34
2022-08-25T09:12:28.238Z,22.84
2022-08-25T09:15:54.667Z,23.63
2022-08-25T09:19:12.637Z,23.90
2022-08-25T09:22:47.926Z,23.94
2022-08-25T09:26:13.201Z,23.87
2022-08-25T09:29:23.517Z,23.81
2022-08-25T09:32:32.923Z,24.42
2022-08-25T09:35:39.683Z,25.22
2022-08-25T09:38:42.334Z,25.53
2022-08-25T09:41:56.617Z,25.42
2022-08-25T09:45:00.402Z,25.36
2022-08-25T09:48:03.836Z,25.65
2022-08-25T09:51:38.055Z,26.27
2022-08-25T09:54:46.985Z,26.85
2022-08-25T09:57:56.965Z,27.38
2022-08-25T10:01:16.865Z,27.45
2022-08-25T10:04:37.621Z,27.57
2022-08-25T10:07:51.930Z,28.37
2022-08-25T10:10:57.652Z,28.41
2022-08-25T10:14:16.521Z,27.94
2022-08-25T10:17:27.697Z,28.10
2022-08-25T10:20:35.082Z,27.38
2022-08-25T10:23:46.933Z,27.48
2022-08-25T10:26:58.992Z,27.55
2022-08-25T10:30:00.963Z,27.98
2022-08-25T10:33:15.983Z,28.36
2022-08-25T10:36:29.275Z,28.91
2022-08-25T10:39:40.479Z,28.82
2022-08-25T10:42:57.805Z,28.62
2022-08-25T10:46:30.109Z,28.30
2022-08-25T10:49:56.355Z,28.36
2022-08-25T10:53:21.142Z,28.43
2022-08-25T10:56:29.510Z,28.54
2022-08-25T11:00:03.796Z,28.90
2022-08-25T11:03:44.842Z,28.42
2022-08-25T11:06:57.215Z,27.97
2022-08-25T11:10:07.058Z,27.83
2022-08-25T11:13:37.147Z,28.12
2022-08-25T11:16:39.273Z,28.77
2022-08-25T11:19:48.343Z,28.88
2022-08-25T11:23:23.867Z,28.35
2022-08-25T11:26:36.813Z,28.11
2022-08-25T11:29:42.157Z,28.16
2022-08-25T11:32:52.277Z,28.05
2022-08-25T11:35:58.776Z,28.20
2022-08-25T11:39:12.903Z,28.39
2022-08-25T11:42:34.327Z,28.70
2022-08-25T11:45:54.119Z,29.84
2022-08-25T11:49:38.233Z,29.83
2022-08-25T11:52:47.090Z,29.72
2022-08-25T11:55:56.155Z,30.07
2022-08-25T11:58:58.689Z,29.79
2022-08-25T12:02:01.931Z,29.36
2022-08-25T12:05:27.812Z,28.69
2022-08-25T12:09:05.085Z,27.87
2022-08-25T12:12:30.464Z,28.10
2022-08-25T12:15:42.149Z,28.47
2022-08-25T12:18:46.627Z,29.25
2022-08-25T12:21:55.142Z,29.73
2022-08-25T12:25:22.061Z,30.02
2022-08-25T12:28:34.927Z,30.25
2022-08-25T12:32:04.580Z,29.72
2022-08-25T12:35:13.998Z,29.45
2022-08-25T12:38:27.358Z,29.88
2022-08-25T12:41:33.770Z,29.88
2022-08-25T12:44:47.787Z,29.41
2022-08-25T12:47:53.898Z,29.77
2022-08-25T12:50:59.606Z,30.01
2022-08-25T12:54:15.871Z,30.27
2022-08-25T12:57:33.015Z,29.65
2022-08-25T13:01:07.699Z,29.48
2022-08-25T13:04:26.933Z,28.88
2022-08-25T13:08:02.815Z,28.88
2022-08-25T13:11:14.243Z,29.29
2022-08-25T13:14:27.033Z,29.35
2022-08-25T13:17:36.018Z,29.25
2022-08-25T13:20:44.147Z,29.41
2022-08-25T13:23:49.700Z,30.24
2022-08-25T13:26:55.723Z,31.34
2022-08-25T13:30:03.817Z,32.61
2022-08-25T13:33:17.628Z,33.72
2022-08-25T13:36:47.475Z,34.60
2022-08-25T13:40:24.780Z,35.34
2022-08-25T13:43:28.600Z,36.05
2022-08-25T13:46:35.385Z,37.31
2022-08-25T13:49:40.496Z,38.67
2022-08-25T13:52:46.932Z,39.79
2022-08-25T13:55:54.919Z,39.33
2022-08-25T13:59:04.269Z,39.05
2022-08-25T14:02:09.308Z,38.95
2022-08-25T14:05:36.049Z,36.25
2022-08-25T14:08:42.409Z,36.57
2022-08-25T14:11:51.427Z,37.87
2022-08-25T14:15:02.940Z,35.67
2022-08-25T14:18:16.024Z,33.92
2022-08-25T14:21:20.691Z,32.81
2022-08-25T14:24:24.373Z,32.45
2022-08-25T14:27:26.578Z,32.42
2022-08-25T14:30:29.518Z,34.91
2022-08-25T14:33:41.701Z,34.59
2022-08-25T14:36:45.051Z,32.71
2022-08-25T14:39:47.243Z,31.84
2022-08-25T14:42:50.491Z,32.65
2022-08-25T14:45:53.245Z,33.68
2022-08-25T14:48:59.708Z,36.50
2022-08-25T14:52:13.462Z,37.97
2022-08-25T14:55:27.685Z,38.87
2022-08-25T14:58:34.384Z,39.83
2022-08-25T15:01:42.802Z,39.87
2022-08-25T15:04:55.905Z,40.18
2022-08-25T15:08:16.430Z,39.62
2022-08-25T15:11:18.691Z,39.46
2022-08-25T15:14:28.449Z,39.80
2022-08-25T15:17:31.220Z,40.49
2022-08-25T15:20:33.848Z,40.92
2022-08-25T15:23:35.940Z,40.70
2022-08-25T15:26:44.773Z,40.87
2022-08-25T15:29:48.445Z,40.73
2022-08-25T15:32:52.451Z,40.53
2022-08-25T15:35:59.918Z,39.20
2022-08-25T15:39:04.217Z,35.62
2022-08-25T15:42:07.322Z,33.03
2022-08-25T15:45:10.803Z,31.31
2022-08-25T15:48:13.244Z,29.96
2022-08-25T15:51:17.966Z,29.31
2022-08-25T15:54:20.986Z,29.17
2022-08-25T15:57:24.623Z,28.63
2022-08-25T16:00:26.838Z,28.11
2022-08-25T16:03:31.616Z,27.65
2022-08-25T16:06:34.390Z,27.37
2022-08-25T16:09:37.051Z,27.20
2022-08-25T16:12:40.259Z,26.97
2022-08-25T16:15:53.085Z,26.60
2022-08-25T16:18:57.318Z,26.37
2022-08-25T16:21:59.908Z,26.10
2022-08-25T16:25:02.700Z,25.97
2022-08-25T16:28:05.602Z,25.47
2022-08-25T16:31:10.245Z,25.17
2022-08-25T16:34:13.249Z,25.14
2022-08-25T16:37:15.477Z,24.89
2022-08-25T16:40:19.286Z,24.73
2022-08-25T16:43:23.835Z,24.58
2022-08-25T16:46:26.198Z,24.69
2022-08-25T16:49:28.630Z,24.48
2022-08-25T16:52:52.884Z,24.25
2022-08-25T16:56:02.516Z,24.07
2022-08-25T16:59:06.422Z,23.87
2022-08-25T17:02:08.886Z,23.69
2022-08-25T17:05:11.895Z,23.51
2022-08-25T17:08:30.529Z,23.37
2022-08-25T17:11:36.263Z,23.14
2022-08-25T17:14:38.437Z,23.00
2022-08-25T17:17:40.493Z,22.83
2022-08-25T17:20:45.427Z,22.61
2022-08-25T17:23:47.908Z,22.43
2022-08-25T17:26:54.039Z,22.36
2022-08-25T17:29:56.115Z,22.31
2022-08-25T17:32:58.694Z,22.24
2022-08-25T17:36:00.783Z,22.13
2022-08-25T17:39:03.687Z,21.93
2022-08-25T17:42:06.594Z,21.79
2022-08-25T17:45:09.267Z,21.64
2022-08-25T17:48:13.106Z,21.47
2022-08-25T17:51:16.018Z,21.37
2022-08-25T17:54:18.843Z,21.25
2022-08-25T17:57:21.206Z,21.14
2022-08-25T18:00:24.252Z,21.08
2022-08-25T18:03:27.248Z,20.96
2022-08-25T18:06:31.226Z,20.88
2022-08-25T18:09:33.498Z,20.78
2022-08-25T18:12:37.643Z,20.69
2022-08-25T18:15:42.356Z,20.56
2022-08-25T18:18:45.046Z,20.46
2022-08-25T18:21:47.082Z,20.41
2022-08-25T18:24:49.383Z,20.34
2022-08-25T18:27:56.800Z,20.24
2022-08-25T18:31:00.449Z,20.21
2022-08-25T18:34:03.476Z,20.20
2022-08-25T18:37:24.293Z,20.14
2022-08-25T18:40:27.378Z,20.00
2022-08-25T18:43:35.259Z,19.93
2022-08-25T18:46:39.606Z,19.85
2022-08-25T18:49:41.743Z,19.81
2022-08-25T18:52:44.811Z,19.77
2022-08-25T18:55:48.314Z,19.72
2022-08-25T18:58:52.665Z,19.63
2022-08-25T19:01:57.493Z,19.52
2022-08-25T19:05:04.723Z,19.44
2022-08-25T19:08:12.897Z,19.39
2022-08-25T19:11:17.137Z,19.30
2022-08-25T19:14:26.464Z,19.15
2022-08-25T19:17:31.028Z,19.04
2022-08-25T19:20:42.440Z,19.04
2022-08-25T19:23:44.846Z,19.01
2022-08-25T19:26:48.819Z,18.96
2022-08-25T19:29:53.475Z,18.96
2022-08-25T19:32:56.441Z,18.93
2022-08-25T19:36:01.623Z,18.94
2022-08-25T19:39:06.456Z,18.85
2022-08-25T19:42:34.893Z,18.77
2022-08-25T19:45:32.337Z,18.73
2022-08-25T19:48:34.491Z,18.67
2022-08-25T19:51:44.290Z,18.55
2022-08-25T19:54:46.569Z,18.48
2022-08-25T19:57:48.703Z,18.46
2022-08-25T20:00:54.268Z,18.43
2022-08-25T20:03:58.240Z,18.39
2022-08-25T20:07:01.261Z,18.41
2022-08-25T20:10:08.880Z,18.44
2022-08-25T20:13:16.668Z,18.38
2022-08-25T20:16:19.065Z,18.34
2022-08-25T20:19:21.696Z,18.29
2022-08-25T20:22:26.970Z,18.30
2022-08-25T20:25:36.192Z,18.24
2022-08-25T20:28:42.028Z,18.17
2022-08-25T20:31:44.594Z,18.12
2022-08-25T20:34:50.180Z,18.12
2022-08-25T20:37:52.996Z,18.14
2022-08-25T20:40:55.460Z,18.06
2022-08-25T20:43:57.774Z,17.99
2022-08-25T20:47:02.370Z,17.93
2022-08-25T20:50:06.929Z,17.91
2022-08-25T20:53:10.298Z,17.93
2022-08-25T20:56:18.747Z,17.90
2022-08-25T20:59:23.394Z,17.87
2022-08-25T21:02:26.797Z,17.82
2022-08-25T21:05:28.996Z,17.83
2022-08-25T21:08:31.234Z,17.85
2022-08-25T21:11:33.403Z,17.83
2022-08-25T21:14:39.526Z,17.76
2022-08-25T21:17:41.707Z,17.69
2022-08-25T21:20:44.649Z,17.62
2022-08-25T21:23:48.806Z,17.56
2022-08-25T21:26:53.293Z,17.59
2022-08-25T21:29:55.774Z,17.51
2022-08-25T21:32:58.231Z,17.48
2022-08-25T21:36:00.305Z,17.43
2022-08-25T21:39:07.674Z,17.42
2022-08-25T21:45:16.804Z,17.38
2022-08-25T21:48:23.155Z,17.34
2022-08-25T21:51:31.737Z,17.28
2022-08-25T21:54:33.909Z,17.29
2022-08-25T21:57:36.601Z,17.33
2022-08-25T22:00:38.821Z,17.32
2022-08-25T22:03:42.621Z,17.27
2022-08-25T22:06:49.356Z,17.24
2022-08-25T22:09:51.526Z,17.20
2022-08-25T22:12:54.702Z,17.17
2022-08-25T22:15:56.768Z,17.15
2022-08-25T22:18:59.731Z,17.06
2022-08-25T22:22:03.784Z,17.01
2022-08-25T22:25:06.154Z,16.95
2022-08-25T22:28:14.957Z,16.92
2022-08-25T22:31:20.581Z,16.87
2022-08-25T22:34:30.217Z,16.84
2022-08-25T22:37:34.997Z,16.85
2022-08-25T22:40:39.213Z,16.85
2022-08-25T22:43:42.175Z,16.89
2022-08-25T22:46:45.256Z,16.89
2022-08-25T22:49:47.358Z,16.86
2022-08-25T22:52:50.177Z,16.86
2022-08-25T22:55:52.939Z,16.84
2022-08-25T22:59:07.399Z,16.82
2022-08-25T23:02:09.469Z,16.81
2022-08-25T23:05:14.333Z,16.80
2022-08-25T23:08:16.606Z,16.80
2022-08-25T23:11:33.269Z,16.74
2022-08-25T23:14:38.093Z,16.67
2022-08-25T23:17:44.406Z,16.60
2022-08-25T23:21:05.810Z,16.60
2022-08-25T23:24:10.808Z,16.61
2022-08-25T23:27:17.677Z,16.63
2022-08-25T23:30:20.464Z,16.58
2022-08-25T23:33:24.208Z,16.53
2022-08-25T23:36:26.468Z,16.53
2022-08-25T23:39:28.813Z,16.53
2022-08-25T23:42:33.350Z,16.46
2022-08-25T23:45:35.468Z,16.42
2022-08-25T23:48:38.098Z,16.39
2022-08-25T23:51:41.218Z,16.38
2022-08-25T23:54:45.339Z,16.32
2022-08-25T23:57:51.554Z,16.29
